GCFIZ EGBP-EGHP

Flight info

Callsign GCFIZ
Flight time 0h 25m
Altitude 2000
Route EGBP EGHP
Aircraft C172/L-G/L

Departure

Time 2026-05-01 10:19
Airport Cotswold Airport (EGBP)

Arrival

Time 2026-05-01 10:44
Airport Popham Airfield (EGHP)
Time Latitude Longitude Altitude Speed Heading
2026-05-01 10:10 51.66994 -2.05287 437 ft 0 kts 60°
2026-05-01 10:15 51.66994 -2.05286 437 ft 0 kts 60°
2026-05-01 10:16 51.66983 -2.05170 437 ft 18 kts 92°
2026-05-01 10:16 51.66960 -2.04942 437 ft 20 kts 94°
2026-05-01 10:16 51.67015 -2.04562 437 ft 21 kts 77°
2026-05-01 10:17 51.67025 -2.04357 437 ft 10 kts 126°
2026-05-01 10:17 51.67023 -2.04352 437 ft 0 kts 126°
2026-05-01 10:17 51.67000 -2.04322 437 ft 15 kts 155°
2026-05-01 10:18 51.66833 -2.05397 495 ft 77 kts 262°
2026-05-01 10:18 51.66749 -2.06235 738 ft 69 kts 266°
2026-05-01 10:18 51.66652 -2.06956 938 ft 66 kts 248°
2026-05-01 10:19 51.66322 -2.07464 1090 ft 71 kts 203°
2026-05-01 10:19 51.65807 -2.07513 1245 ft 78 kts 175°
2026-05-01 10:19 51.65243 -2.07372 1403 ft 85 kts 172°
2026-05-01 10:20 51.64409 -2.05934 1682 ft 98 kts 113°
2026-05-01 10:20 51.64180 -2.04885 1831 ft 101 kts 111°
2026-05-01 10:20 51.63911 -2.03818 1990 ft 102 kts 126°
2026-05-01 10:20 51.63472 -2.02904 2011 ft 114 kts 131°
2026-05-01 10:21 51.63028 -2.01765 1997 ft 122 kts 118°
2026-05-01 10:21 51.62379 -1.99175 2000 ft 127 kts 114°
2026-05-01 10:21 51.62055 -1.97839 1999 ft 127 kts 114°
2026-05-01 10:22 51.61156 -1.95437 2009 ft 127 kts 141°
2026-05-01 10:22 51.59853 -1.93476 2000 ft 128 kts 133°
2026-05-01 10:23 51.59246 -1.92414 2001 ft 128 kts 131°
2026-05-01 10:23 51.58050 -1.90299 2001 ft 128 kts 132°
2026-05-01 10:23 51.57447 -1.89241 2001 ft 128 kts 132°
2026-05-01 10:24 51.56235 -1.87122 2001 ft 128 kts 132°
2026-05-01 10:24 51.55033 -1.85023 2001 ft 128 kts 132°
2026-05-01 10:25 51.53822 -1.82908 2001 ft 128 kts 132°
2026-05-01 10:25 51.52606 -1.80789 2001 ft 128 kts 132°
2026-05-01 10:26 51.51998 -1.79730 2001 ft 128 kts 132°
2026-05-01 10:26 51.51389 -1.78669 2001 ft 128 kts 132°
2026-05-01 10:26 51.50167 -1.76542 2001 ft 128 kts 132°
2026-05-01 10:27 51.48955 -1.74433 2001 ft 128 kts 132°
2026-05-01 10:27 51.47746 -1.72333 2001 ft 128 kts 132°
2026-05-01 10:28 51.47139 -1.71278 2001 ft 128 kts 132°
2026-05-01 10:28 51.45934 -1.69187 2001 ft 128 kts 132°
2026-05-01 10:28 51.45329 -1.68138 2001 ft 128 kts 132°
2026-05-01 10:29 51.44114 -1.66032 2001 ft 128 kts 132°
2026-05-01 10:29 51.43512 -1.64989 2001 ft 128 kts 132°
2026-05-01 10:30 51.42296 -1.62884 2001 ft 128 kts 132°
2026-05-01 10:30 51.41089 -1.60797 2001 ft 128 kts 132°
2026-05-01 10:31 51.39877 -1.58703 2001 ft 128 kts 132°
2026-05-01 10:31 51.38658 -1.56598 2001 ft 128 kts 132°
2026-05-01 10:32 51.37446 -1.54508 2001 ft 128 kts 132°
2026-05-01 10:32 51.36837 -1.53458 2001 ft 128 kts 132°
2026-05-01 10:32 51.35603 -1.51370 2001 ft 128 kts 133°
2026-05-01 10:33 51.34395 -1.49259 2001 ft 129 kts 133°
2026-05-01 10:33 51.33184 -1.47169 2001 ft 129 kts 133°
2026-05-01 10:34 51.32565 -1.46104 2001 ft 129 kts 133°
2026-05-01 10:34 51.31954 -1.45055 2001 ft 129 kts 133°
2026-05-01 10:34 51.31343 -1.44004 2001 ft 129 kts 133°
2026-05-01 10:35 51.30194 -1.41806 2001 ft 128 kts 129°
2026-05-01 10:35 51.29639 -1.40704 2001 ft 129 kts 129°
2026-05-01 10:35 51.29073 -1.39580 2001 ft 129 kts 129°
2026-05-01 10:35 51.28515 -1.38476 2001 ft 129 kts 129°
2026-05-01 10:36 51.27389 -1.36246 2001 ft 128 kts 129°
2026-05-01 10:36 51.26828 -1.35137 2001 ft 128 kts 129°
2026-05-01 10:36 51.26263 -1.34020 2001 ft 128 kts 130°
2026-05-01 10:37 51.25698 -1.32904 2001 ft 128 kts 130°
2026-05-01 10:37 51.24554 -1.30692 2001 ft 128 kts 131°
2026-05-01 10:37 51.23979 -1.29600 2001 ft 128 kts 132°
2026-05-01 10:38 51.23385 -1.28534 2001 ft 128 kts 133°
2026-05-01 10:38 51.22774 -1.27494 2001 ft 128 kts 135°
2026-05-01 10:38 51.22158 -1.26474 2001 ft 128 kts 136°
2026-05-01 10:38 51.21536 -1.25448 2001 ft 128 kts 135°
2026-05-01 10:39 51.20916 -1.24426 2001 ft 128 kts 136°
2026-05-01 10:39 51.20287 -1.23390 2001 ft 128 kts 136°
2026-05-01 10:39 51.19665 -1.22369 2000 ft 128 kts 136°
2026-05-01 10:39 51.19066 -1.21386 1936 ft 115 kts 137°
2026-05-01 10:40 51.18517 -1.20586 1784 ft 100 kts 158°
2026-05-01 10:40 51.17889 -1.20592 1663 ft 87 kts 211°
2026-05-01 10:40 51.17548 -1.21280 1541 ft 77 kts 264°
2026-05-01 10:40 51.17652 -1.22079 1416 ft 76 kts 303°
2026-05-01 10:41 51.17960 -1.22836 1279 ft 85 kts 308°
2026-05-01 10:41 51.18327 -1.23647 1139 ft 94 kts 311°
2026-05-01 10:41 51.19131 -1.25294 1155 ft 99 kts 311°
2026-05-01 10:42 51.19674 -1.25894 1168 ft 94 kts 354°
2026-05-01 10:42 51.20278 -1.25719 1160 ft 86 kts 25°
2026-05-01 10:42 51.20818 -1.25336 1154 ft 84 kts 30°
2026-05-01 10:42 51.21339 -1.24879 1155 ft 85 kts 34°
2026-05-01 10:43 51.21835 -1.24371 1159 ft 85 kts 47°
2026-05-01 10:43 51.22033 -1.23514 1172 ft 84 kts 99°
2026-05-01 10:43 51.21797 -1.22667 1159 ft 88 kts 127°
2026-05-01 10:43 51.21375 -1.21969 1051 ft 85 kts 161°
2026-05-01 10:44 51.20837 -1.21947 878 ft 75 kts 208°
2026-05-01 10:44 51.20404 -1.22362 689 ft 68 kts 219°
2026-05-01 10:44 51.20035 -1.22741 553 ft 58 kts 210°
2026-05-01 10:44 51.19757 -1.22996 553 ft 34 kts 212°
2026-05-01 10:45 51.19591 -1.23149 553 ft 23 kts 209°
2026-05-01 10:45 51.19463 -1.23268 553 ft 17 kts 224°
2026-05-01 10:45 51.19414 -1.23420 553 ft 13 kts 248°
2026-05-01 10:45 51.19385 -1.23535 553 ft 7 kts 273°
2026-05-01 10:46 51.19385 -1.23573 553 ft 0 kts 158°